createdAt,value
2023-05-21T00:00:55.639Z,16.55
2023-05-21T00:01:55.618Z,16.50
2023-05-21T00:02:55.721Z,16.44
2023-05-21T00:03:55.695Z,16.45
2023-05-21T00:04:55.579Z,16.42
2023-05-21T00:05:55.613Z,16.42
2023-05-21T00:06:55.568Z,16.34
2023-05-21T00:07:55.545Z,16.40
2023-05-21T00:08:55.534Z,16.34
2023-05-21T00:09:55.649Z,16.37
2023-05-21T00:10:55.511Z,16.34
2023-05-21T00:11:55.490Z,16.29
2023-05-21T00:12:55.474Z,16.30
2023-05-21T00:13:55.458Z,16.36
2023-05-21T00:14:55.448Z,16.29
2023-05-21T00:15:55.456Z,16.25
2023-05-21T00:16:55.422Z,16.23
2023-05-21T00:17:55.429Z,16.25
2023-05-21T00:18:55.431Z,16.23
2023-05-21T00:19:55.384Z,16.22
2023-05-21T00:20:55.571Z,16.26
2023-05-21T00:21:55.353Z,16.18
2023-05-21T00:22:55.339Z,16.11
2023-05-21T00:23:55.339Z,16.08
2023-05-21T00:24:55.322Z,16.14
2023-05-21T00:25:55.330Z,16.14
2023-05-21T00:26:55.287Z,16.16
2023-05-21T00:27:55.268Z,16.13
2023-05-21T00:28:55.253Z,16.04
2023-05-21T00:29:55.243Z,16.07
2023-05-21T00:30:55.240Z,16.03
2023-05-21T00:31:55.278Z,16.01
2023-05-21T00:32:55.229Z,15.98
2023-05-21T00:33:55.207Z,15.95
2023-05-21T00:34:55.178Z,15.99
2023-05-21T00:35:55.161Z,15.96
2023-05-21T00:36:55.170Z,15.93
2023-05-21T00:37:55.140Z,15.92
2023-05-21T00:38:55.138Z,15.95
2023-05-21T00:39:57.571Z,15.91
2023-05-21T00:40:55.100Z,15.85
2023-05-21T00:41:55.106Z,15.85
2023-05-21T00:42:55.075Z,15.85
2023-05-21T00:43:55.057Z,15.85
2023-05-21T00:44:55.044Z,15.77
2023-05-21T00:45:55.055Z,15.73
2023-05-21T00:46:55.037Z,15.84
2023-05-21T00:47:55.048Z,15.71
2023-05-21T00:48:55.001Z,15.67
2023-05-21T00:49:54.984Z,15.68
2023-05-21T00:50:54.974Z,15.66
2023-05-21T00:51:54.962Z,15.77
2023-05-21T00:52:54.937Z,15.68
2023-05-21T00:53:54.921Z,15.70
2023-05-21T00:54:54.907Z,15.64
2023-05-21T00:55:54.906Z,15.64
2023-05-21T00:56:54.888Z,15.67
2023-05-21T00:57:54.904Z,15.59
2023-05-21T00:58:54.850Z,15.60
2023-05-21T00:59:54.842Z,15.62
2023-05-21T01:00:54.886Z,15.60
2023-05-21T01:01:54.817Z,15.66
2023-05-21T01:02:54.860Z,15.59
2023-05-21T01:03:54.789Z,15.58
2023-05-21T01:04:54.792Z,15.59
2023-05-21T01:05:54.770Z,15.58
2023-05-21T01:06:54.754Z,15.60
2023-05-21T01:07:54.731Z,15.55
2023-05-21T01:08:54.719Z,15.53
2023-05-21T01:09:54.709Z,15.52
2023-05-21T01:10:54.693Z,15.58
2023-05-21T01:11:54.684Z,15.56
2023-05-21T01:12:54.668Z,15.48
2023-05-21T01:13:54.676Z,15.55
2023-05-21T01:14:54.654Z,15.48
2023-05-21T01:15:54.623Z,15.56
2023-05-21T01:16:54.644Z,15.58
2023-05-21T01:17:54.612Z,15.58
2023-05-21T01:18:54.629Z,15.55
2023-05-21T01:19:54.601Z,15.60
2023-05-21T01:20:54.562Z,15.58
2023-05-21T01:21:54.543Z,15.59
2023-05-21T01:22:54.533Z,15.55
2023-05-21T01:23:54.527Z,15.56
2023-05-21T01:24:54.520Z,15.60
2023-05-21T01:25:54.491Z,15.66
2023-05-21T01:26:54.481Z,15.60
2023-05-21T01:27:54.468Z,15.58
2023-05-21T01:28:54.456Z,15.60
2023-05-21T01:29:54.470Z,15.60
2023-05-21T01:30:54.431Z,15.55
2023-05-21T01:31:54.414Z,15.56
2023-05-21T01:32:54.461Z,15.55
2023-05-21T01:33:54.420Z,15.59
2023-05-21T01:34:54.374Z,15.53
2023-05-21T01:35:54.355Z,15.58
2023-05-21T01:36:54.350Z,15.56
2023-05-21T01:37:54.341Z,15.58
2023-05-21T01:38:54.319Z,15.59
2023-05-21T01:39:54.309Z,15.53
2023-05-21T01:40:54.303Z,15.53
2023-05-21T01:41:54.290Z,15.52
2023-05-21T01:42:54.277Z,15.55
2023-05-21T01:43:54.254Z,15.53
2023-05-21T01:44:54.244Z,15.46
2023-05-21T01:45:54.283Z,15.48
2023-05-21T01:46:54.293Z,15.43
2023-05-21T01:47:54.272Z,15.48
2023-05-21T01:48:54.192Z,15.38
2023-05-21T01:49:54.177Z,15.41
2023-05-21T01:50:54.169Z,15.43
2023-05-21T01:51:54.151Z,15.37
2023-05-21T01:52:54.147Z,15.33
2023-05-21T01:53:54.125Z,15.34
2023-05-21T01:54:54.110Z,15.35
2023-05-21T01:55:54.099Z,15.31
2023-05-21T01:56:54.083Z,15.34
2023-05-21T01:57:54.071Z,15.27
2023-05-21T01:58:54.058Z,15.28
2023-05-21T01:59:54.048Z,15.28
2023-05-21T02:00:54.035Z,15.30
2023-05-21T02:01:54.062Z,15.20
2023-05-21T02:02:54.079Z,15.19
2023-05-21T02:03:54.161Z,15.16
2023-05-21T02:04:53.980Z,15.13
2023-05-21T02:05:53.976Z,15.16
2023-05-21T02:06:53.952Z,15.04
2023-05-21T02:07:53.948Z,15.11
2023-05-21T02:08:53.925Z,15.11
2023-05-21T02:09:53.914Z,15.05
2023-05-21T02:10:53.912Z,15.05
2023-05-21T02:11:53.886Z,15.11
2023-05-21T02:12:53.871Z,15.04
2023-05-21T02:13:53.856Z,15.00
2023-05-21T02:14:53.843Z,15.00
2023-05-21T02:15:53.859Z,14.98
2023-05-21T02:16:53.822Z,14.91
2023-05-21T02:17:53.840Z,14.93
2023-05-21T02:18:53.915Z,14.95
2023-05-21T02:19:53.783Z,14.95
2023-05-21T02:20:53.772Z,14.85
2023-05-21T02:21:53.760Z,14.90
2023-05-21T02:22:53.742Z,14.87
2023-05-21T02:23:53.741Z,14.93
2023-05-21T02:24:53.722Z,14.90
2023-05-21T02:25:53.708Z,14.80
2023-05-21T02:26:53.939Z,14.82
2023-05-21T02:27:53.819Z,14.87
2023-05-21T02:28:53.662Z,14.87
2023-05-21T02:29:53.648Z,14.87
2023-05-21T02:30:53.635Z,14.83
2023-05-21T02:31:53.622Z,14.82
2023-05-21T02:32:53.745Z,14.71
2023-05-21T02:33:53.637Z,14.71
2023-05-21T02:34:53.575Z,14.78
2023-05-21T02:35:53.574Z,14.78
2023-05-21T02:36:53.557Z,14.74
2023-05-21T02:37:53.550Z,14.72
2023-05-21T02:38:53.541Z,14.69
2023-05-21T02:39:53.521Z,14.69
2023-05-21T02:40:53.606Z,14.67
2023-05-21T02:41:53.484Z,14.66
2023-05-21T02:42:53.481Z,14.66
2023-05-21T02:43:53.466Z,14.69
2023-05-21T02:44:53.509Z,14.63
2023-05-21T02:45:53.463Z,14.64
2023-05-21T02:46:53.424Z,14.66
2023-05-21T02:47:53.435Z,14.69
2023-05-21T02:48:53.392Z,14.66
2023-05-21T02:49:53.400Z,14.56
2023-05-21T02:50:53.362Z,14.61
2023-05-21T02:51:53.347Z,14.53
2023-05-21T02:52:53.329Z,14.57
2023-05-21T02:53:53.319Z,14.57
2023-05-21T02:54:53.314Z,14.54
2023-05-21T02:55:53.287Z,14.59
2023-05-21T02:56:53.278Z,14.56
2023-05-21T02:57:53.267Z,14.60
2023-05-21T02:58:53.308Z,14.49
2023-05-21T02:59:53.241Z,14.56
2023-05-21T03:00:53.251Z,14.49
2023-05-21T03:01:53.243Z,14.48
2023-05-21T03:02:53.379Z,14.46
2023-05-21T03:03:53.189Z,14.48
2023-05-21T03:04:53.183Z,14.45
2023-05-21T03:05:53.230Z,14.44
2023-05-21T03:06:53.161Z,14.39
2023-05-21T03:07:53.298Z,14.41
2023-05-21T03:08:53.119Z,14.38
2023-05-21T03:09:53.110Z,14.44
2023-05-21T03:10:53.099Z,14.36
2023-05-21T03:11:53.072Z,14.41
2023-05-21T03:12:53.063Z,14.41
2023-05-21T03:13:53.050Z,14.34
2023-05-21T03:14:53.031Z,14.39
2023-05-21T03:15:53.028Z,14.38
2023-05-21T03:16:53.069Z,14.35
2023-05-21T03:17:53.056Z,14.36
2023-05-21T03:18:53.030Z,14.39
2023-05-21T03:19:52.969Z,14.35
2023-05-21T03:20:52.968Z,14.30
2023-05-21T03:21:52.968Z,14.35
2023-05-21T03:22:52.990Z,14.34
2023-05-21T03:23:52.937Z,14.30
2023-05-21T03:24:52.910Z,14.36
2023-05-21T03:25:52.896Z,14.34
2023-05-21T03:26:52.884Z,14.34
2023-05-21T03:27:52.865Z,14.31
2023-05-21T03:28:52.855Z,14.35
2023-05-21T03:29:52.842Z,14.27
2023-05-21T03:30:52.850Z,14.30
2023-05-21T03:31:53.321Z,14.35
2023-05-21T03:32:52.854Z,14.20
2023-05-21T03:33:52.795Z,14.24
2023-05-21T03:34:52.772Z,14.24
2023-05-21T03:35:52.749Z,14.17
2023-05-21T03:36:52.745Z,14.19
2023-05-21T03:37:52.751Z,14.17
2023-05-21T03:38:52.723Z,14.20
2023-05-21T03:39:52.709Z,14.19
2023-05-21T03:40:52.690Z,14.11
2023-05-21T03:41:52.680Z,14.09
2023-05-21T03:42:52.667Z,14.13
2023-05-21T03:43:52.651Z,14.08
2023-05-21T03:44:52.642Z,14.12
2023-05-21T03:45:52.682Z,14.02
2023-05-21T03:46:52.612Z,14.01
2023-05-21T03:47:52.659Z,14.05
2023-05-21T03:48:52.584Z,14.02
2023-05-21T03:49:52.573Z,13.98
2023-05-21T03:50:52.559Z,13.98
2023-05-21T03:51:52.536Z,13.98
2023-05-21T03:52:52.541Z,13.96
2023-05-21T03:53:52.532Z,13.99
2023-05-21T03:54:52.505Z,14.04
2023-05-21T03:55:52.480Z,13.96
2023-05-21T03:56:52.477Z,13.94
2023-05-21T03:57:52.467Z,13.94
2023-05-21T03:58:52.448Z,13.96
2023-05-21T03:59:52.434Z,13.91
2023-05-21T04:00:52.414Z,13.96
2023-05-21T04:01:52.399Z,13.91
2023-05-21T04:02:52.516Z,13.94
2023-05-21T04:03:52.775Z,13.98
2023-05-21T04:04:52.384Z,13.91
2023-05-21T04:05:52.355Z,13.98
2023-05-21T04:06:52.334Z,13.90
2023-05-21T04:07:52.335Z,13.99
2023-05-21T04:08:52.347Z,13.94
2023-05-21T04:09:52.331Z,13.96
2023-05-21T04:10:52.288Z,14.01
2023-05-21T04:11:52.265Z,13.93
2023-05-21T04:12:52.249Z,13.99
2023-05-21T04:13:52.240Z,14.05
2023-05-21T04:14:52.241Z,14.02
2023-05-21T04:15:52.258Z,14.01
2023-05-21T04:16:52.209Z,14.01
2023-05-21T04:17:52.270Z,14.01
2023-05-21T04:18:52.186Z,14.01
2023-05-21T04:19:52.162Z,14.06
2023-05-21T04:20:52.150Z,14.08
2023-05-21T04:21:52.131Z,14.11
2023-05-21T04:22:52.121Z,14.06
2023-05-21T04:23:52.107Z,14.11
2023-05-21T04:24:52.094Z,14.05
2023-05-21T04:25:52.103Z,14.11
2023-05-21T04:26:52.063Z,14.13
2023-05-21T04:27:52.056Z,14.08
2023-05-21T04:28:52.041Z,14.11
2023-05-21T04:29:52.020Z,14.11
2023-05-21T04:30:52.027Z,14.08
2023-05-21T04:31:52.044Z,14.11
2023-05-21T04:32:52.261Z,14.06
2023-05-21T04:33:51.991Z,14.11
2023-05-21T04:34:51.965Z,14.09
2023-05-21T04:35:51.946Z,14.11
2023-05-21T04:36:51.933Z,14.13
2023-05-21T04:37:51.917Z,14.16
2023-05-21T04:38:51.910Z,14.26
2023-05-21T04:39:51.882Z,14.21
2023-05-21T04:40:51.979Z,14.29
2023-05-21T04:41:52.184Z,14.23
2023-05-21T04:42:51.855Z,14.24
2023-05-21T04:43:51.831Z,14.26
2023-05-21T04:44:51.819Z,14.26
2023-05-21T04:45:51.801Z,14.27
2023-05-21T04:46:51.869Z,14.26
2023-05-21T04:47:51.830Z,14.30
2023-05-21T04:48:51.768Z,14.24
2023-05-21T04:49:51.755Z,14.26
2023-05-21T04:50:51.742Z,14.24
2023-05-21T04:51:51.729Z,14.27
2023-05-21T04:52:51.726Z,14.31
2023-05-21T04:53:51.849Z,14.24
2023-05-21T04:54:51.685Z,14.27
2023-05-21T04:55:51.673Z,14.35
2023-05-21T04:56:51.657Z,14.31
2023-05-21T04:57:51.671Z,14.31
2023-05-21T04:58:51.632Z,14.38
2023-05-21T04:59:51.625Z,14.34
2023-05-21T05:00:51.683Z,14.41
2023-05-21T05:01:51.602Z,14.44
2023-05-21T05:02:51.654Z,14.35
2023-05-21T05:03:51.609Z,14.36
2023-05-21T05:04:51.548Z,14.36
2023-05-21T05:05:51.544Z,14.44
2023-05-21T05:06:51.532Z,14.42
2023-05-21T05:07:51.510Z,14.38
2023-05-21T05:08:51.496Z,14.45
2023-05-21T05:09:51.486Z,14.44
2023-05-21T05:10:51.474Z,14.39
2023-05-21T05:11:51.473Z,14.44
2023-05-21T05:12:51.449Z,14.39
2023-05-21T05:13:51.454Z,14.36
2023-05-21T05:14:51.421Z,14.42
2023-05-21T05:15:52.630Z,14.48
2023-05-21T05:16:51.634Z,14.49
2023-05-21T05:17:51.413Z,14.52
2023-05-21T05:18:51.428Z,14.48
2023-05-21T05:19:51.350Z,14.54
2023-05-21T05:20:51.337Z,14.57
2023-05-21T05:21:51.323Z,14.60
2023-05-21T05:22:51.333Z,14.59
2023-05-21T05:23:51.312Z,14.60
2023-05-21T05:24:51.283Z,14.69
2023-05-21T05:25:51.282Z,14.74
2023-05-21T05:26:51.261Z,14.64
2023-05-21T05:27:51.245Z,14.67
2023-05-21T05:28:51.245Z,14.67
2023-05-21T05:29:51.235Z,14.78
2023-05-21T05:30:51.234Z,14.75
2023-05-21T05:31:51.194Z,14.80
2023-05-21T05:32:51.729Z,14.78
2023-05-21T05:33:51.166Z,14.79
2023-05-21T05:34:51.412Z,14.86
2023-05-21T05:35:51.138Z,14.83
2023-05-21T05:36:51.127Z,14.86
2023-05-21T05:37:51.110Z,14.91
2023-05-21T05:38:51.106Z,14.90
2023-05-21T05:39:51.080Z,14.91
2023-05-21T05:40:51.067Z,14.97
2023-05-21T05:41:51.057Z,14.97
2023-05-21T05:42:51.050Z,14.97
2023-05-21T05:43:51.040Z,15.09
2023-05-21T05:44:51.022Z,15.01
2023-05-21T05:45:51.044Z,15.00
2023-05-21T05:46:50.997Z,15.16
2023-05-21T05:47:51.037Z,15.12
2023-05-21T05:48:50.975Z,15.18
2023-05-21T05:49:50.947Z,15.16
2023-05-21T05:50:50.951Z,15.18
2023-05-21T05:51:50.927Z,15.28
2023-05-21T05:52:50.915Z,15.22
2023-05-21T05:53:50.908Z,15.30
2023-05-21T05:54:50.882Z,15.20
2023-05-21T05:55:50.866Z,15.31
2023-05-21T05:56:50.868Z,15.34
2023-05-21T05:57:50.855Z,15.41
2023-05-21T05:58:50.825Z,15.43
2023-05-21T05:59:51.024Z,15.43
2023-05-21T06:00:50.807Z,15.38
2023-05-21T06:01:50.821Z,15.35
2023-05-21T06:02:50.857Z,15.38
2023-05-21T06:03:50.805Z,15.44
2023-05-21T06:04:50.759Z,15.41
2023-05-21T06:05:50.817Z,15.41
2023-05-21T06:06:50.734Z,15.44
2023-05-21T06:07:50.721Z,15.34
2023-05-21T06:08:50.694Z,15.44
2023-05-21T06:09:50.688Z,15.43
2023-05-21T06:10:50.679Z,15.52
2023-05-21T06:11:50.654Z,15.51
2023-05-21T06:12:50.648Z,15.49
2023-05-21T06:13:50.622Z,15.55
2023-05-21T06:14:50.622Z,15.59
2023-05-21T06:15:50.651Z,15.62
2023-05-21T06:16:50.592Z,15.67
2023-05-21T06:17:50.610Z,15.73
2023-05-21T06:18:50.581Z,15.74
2023-05-21T06:19:50.549Z,15.71
2023-05-21T06:20:50.539Z,15.76
2023-05-21T06:21:50.517Z,15.76
2023-05-21T06:22:50.509Z,15.80
2023-05-21T06:23:50.501Z,15.81
2023-05-21T06:24:50.481Z,15.86
2023-05-21T06:25:50.461Z,15.89
2023-05-21T06:26:50.478Z,15.92
2023-05-21T06:27:50.444Z,15.98
2023-05-21T06:28:50.429Z,16.08
2023-05-21T06:29:50.413Z,16.08
2023-05-21T06:30:50.406Z,16.17
2023-05-21T06:31:50.391Z,16.17
2023-05-21T06:32:50.534Z,16.25
2023-05-21T06:33:50.464Z,16.25
2023-05-21T06:34:50.597Z,16.30
2023-05-21T06:35:50.365Z,16.34
2023-05-21T06:36:50.325Z,16.33
2023-05-21T06:37:50.310Z,16.41
2023-05-21T06:38:50.297Z,16.57
2023-05-21T06:39:50.283Z,16.67
2023-05-21T06:40:50.265Z,16.75
2023-05-21T06:41:50.259Z,16.84
2023-05-21T06:42:50.245Z,16.95
2023-05-21T06:43:50.244Z,17.00
2023-05-21T06:44:50.219Z,17.03
2023-05-21T06:45:50.288Z,17.06
2023-05-21T06:46:50.212Z,17.15
2023-05-21T06:47:50.218Z,17.15
2023-05-21T06:48:50.362Z,17.27
2023-05-21T06:49:50.194Z,17.39
2023-05-21T06:50:50.135Z,17.49
2023-05-21T06:51:50.131Z,17.63
2023-05-21T06:52:50.129Z,17.70
2023-05-21T06:53:50.104Z,17.77
2023-05-21T06:54:50.079Z,17.80
2023-05-21T06:55:50.073Z,17.81
2023-05-21T06:56:50.060Z,17.89
2023-05-21T06:57:50.043Z,17.95
2023-05-21T06:58:50.032Z,17.99
2023-05-21T06:59:50.020Z,18.07
2023-05-21T07:00:50.034Z,18.07
2023-05-21T07:01:50.002Z,18.05
2023-05-21T07:02:50.085Z,18.10
2023-05-21T07:03:49.961Z,18.07
2023-05-21T07:04:49.959Z,18.20
2023-05-21T07:05:49.957Z,18.19
2023-05-21T07:06:49.936Z,18.21
2023-05-21T07:07:49.911Z,18.36
2023-05-21T07:08:49.902Z,18.39
2023-05-21T07:09:49.883Z,18.46
2023-05-21T07:10:49.877Z,18.44
2023-05-21T07:11:49.861Z,18.51
2023-05-21T07:12:49.848Z,18.57
2023-05-21T07:13:49.891Z,18.72
2023-05-21T07:14:49.812Z,18.84
2023-05-21T07:15:49.817Z,18.89
2023-05-21T07:16:49.819Z,18.91
2023-05-21T07:17:49.831Z,18.99
2023-05-21T07:18:49.811Z,19.15
2023-05-21T07:19:49.757Z,19.24
2023-05-21T07:20:49.737Z,19.35
2023-05-21T07:21:49.846Z,19.45
2023-05-21T07:22:49.717Z,19.55
2023-05-21T07:23:49.693Z,19.57
2023-05-21T07:24:49.683Z,19.64
2023-05-21T07:25:49.672Z,19.76
2023-05-21T07:26:49.667Z,19.85
2023-05-21T07:27:49.650Z,20.00
2023-05-21T07:28:49.637Z,20.08
2023-05-21T07:29:49.625Z,20.04
2023-05-21T07:30:49.633Z,20.15
2023-05-21T07:31:49.596Z,20.17
2023-05-21T07:32:49.608Z,20.15
2023-05-21T07:33:49.571Z,20.16
2023-05-21T07:34:49.557Z,20.19
2023-05-21T07:35:49.548Z,20.23
2023-05-21T07:36:49.528Z,20.25
2023-05-21T07:37:49.656Z,20.40
2023-05-21T07:38:49.860Z,20.54
2023-05-21T07:39:49.493Z,20.72
2023-05-21T07:40:49.479Z,20.91
2023-05-21T07:41:49.469Z,21.06
2023-05-21T07:42:49.447Z,21.22
2023-05-21T07:43:49.444Z,21.31
2023-05-21T07:44:49.423Z,21.45
2023-05-21T07:45:49.427Z,21.55
2023-05-21T07:46:49.465Z,21.71
2023-05-21T07:47:49.442Z,21.74
2023-05-21T07:48:49.369Z,21.85
2023-05-21T07:49:49.360Z,21.96
2023-05-21T07:50:49.351Z,22.02
2023-05-21T07:51:49.335Z,21.94
2023-05-21T07:52:49.368Z,21.96
2023-05-21T07:53:49.338Z,21.86
2023-05-21T07:54:49.292Z,21.49
2023-05-21T07:55:49.290Z,21.36
2023-05-21T07:56:49.274Z,21.40
2023-05-21T07:57:49.258Z,21.67
2023-05-21T07:58:49.264Z,21.86
2023-05-21T07:59:49.232Z,21.89
2023-05-21T08:00:49.214Z,21.90
2023-05-21T08:01:49.211Z,22.05
2023-05-21T08:02:49.300Z,22.19
2023-05-21T08:03:49.286Z,22.36
2023-05-21T08:04:49.181Z,22.52
2023-05-21T08:05:49.253Z,22.70
2023-05-21T08:06:49.149Z,22.75
2023-05-21T08:07:49.126Z,22.97
2023-05-21T08:08:49.120Z,23.19
2023-05-21T08:09:49.224Z,23.37
2023-05-21T08:10:49.091Z,23.47
2023-05-21T08:11:49.082Z,23.54
2023-05-21T08:12:49.067Z,23.60
2023-05-21T08:13:49.062Z,23.63
2023-05-21T08:14:49.047Z,23.63
2023-05-21T08:15:51.314Z,23.59
2023-05-21T08:16:49.077Z,23.68
2023-05-21T08:17:49.042Z,23.79
2023-05-21T08:18:49.012Z,23.87
2023-05-21T08:19:49.010Z,24.00
2023-05-21T08:20:48.963Z,24.23
2023-05-21T08:21:51.323Z,24.29
2023-05-21T08:22:48.942Z,24.36
2023-05-21T08:23:48.924Z,24.42
2023-05-21T08:24:48.935Z,24.63
2023-05-21T08:25:48.926Z,24.86
2023-05-21T08:26:49.242Z,25.04
2023-05-21T08:27:50.960Z,25.11
2023-05-21T08:28:48.870Z,25.14
2023-05-21T08:29:48.853Z,25.14
2023-05-21T08:30:48.859Z,25.19
2023-05-21T08:31:48.889Z,25.27
2023-05-21T08:32:48.876Z,25.20
2023-05-21T08:33:48.806Z,25.31
2023-05-21T08:34:48.789Z,25.20
2023-05-21T08:35:48.785Z,25.11
2023-05-21T08:36:48.762Z,25.11
2023-05-21T08:37:48.767Z,25.27
2023-05-21T08:38:48.738Z,25.31
2023-05-21T08:39:48.733Z,25.44
2023-05-21T08:40:48.711Z,25.27
2023-05-21T08:41:48.722Z,25.27
2023-05-21T08:42:48.691Z,25.23
2023-05-21T08:43:50.444Z,25.14
2023-05-21T08:44:48.668Z,25.07
2023-05-21T08:45:48.680Z,25.05
2023-05-21T08:46:48.645Z,25.04
2023-05-21T08:47:48.730Z,25.04
2023-05-21T08:48:48.613Z,25.09
2023-05-21T08:49:48.605Z,25.23
2023-05-21T08:50:48.594Z,25.38
2023-05-21T08:51:48.577Z,25.42
2023-05-21T08:52:48.569Z,25.11
2023-05-21T08:53:48.557Z,24.99
2023-05-21T08:54:48.543Z,25.07
2023-05-21T08:55:50.166Z,25.14
2023-05-21T08:56:48.517Z,25.29
2023-05-21T08:57:48.526Z,25.41
2023-05-21T08:58:48.504Z,25.54
2023-05-21T08:59:48.500Z,25.63
2023-05-21T09:00:48.535Z,25.81
2023-05-21T09:01:48.484Z,26.04
2023-05-21T09:02:48.482Z,25.91
2023-05-21T09:03:48.491Z,25.82
2023-05-21T09:04:48.432Z,25.82
2023-05-21T09:05:48.412Z,25.98
2023-05-21T09:06:48.411Z,26.28
2023-05-21T09:07:49.774Z,26.47
2023-05-21T09:08:48.380Z,26.61
2023-05-21T09:09:48.358Z,26.78
2023-05-21T09:10:48.348Z,26.83
2023-05-21T09:11:48.356Z,26.94
2023-05-21T09:12:48.334Z,27.20
2023-05-21T09:13:48.340Z,27.48
2023-05-21T09:14:48.314Z,27.83
2023-05-21T09:15:48.585Z,28.17
2023-05-21T09:16:48.380Z,28.11
2023-05-21T09:17:48.300Z,28.18
2023-05-21T09:18:48.297Z,28.45
2023-05-21T09:19:48.233Z,28.72
2023-05-21T09:20:48.218Z,28.88
2023-05-21T09:21:48.213Z,29.11
2023-05-21T09:22:48.216Z,29.27
2023-05-21T09:23:48.197Z,29.52
2023-05-21T09:24:48.187Z,29.79
2023-05-21T09:25:48.186Z,29.84
2023-05-21T09:26:48.156Z,29.47
2023-05-21T09:27:48.145Z,29.12
2023-05-21T09:28:48.176Z,28.95
2023-05-21T09:29:48.140Z,28.76
2023-05-21T09:30:48.151Z,28.57
2023-05-21T09:31:48.232Z,28.30
2023-05-21T09:32:48.101Z,28.03
2023-05-21T09:33:48.083Z,27.83
2023-05-21T09:34:48.067Z,27.71
2023-05-21T09:35:48.045Z,27.91
2023-05-21T09:36:48.051Z,28.06
2023-05-21T09:37:48.071Z,27.77
2023-05-21T09:38:48.017Z,27.39
2023-05-21T09:39:48.456Z,27.23
2023-05-21T09:40:47.987Z,27.09
2023-05-21T09:41:47.975Z,26.97
2023-05-21T09:42:47.969Z,27.11
2023-05-21T09:43:47.966Z,27.30
2023-05-21T09:44:47.938Z,27.35
2023-05-21T09:45:47.949Z,27.49
2023-05-21T09:46:47.982Z,27.68
2023-05-21T09:47:47.923Z,27.96
2023-05-21T09:48:47.898Z,28.21
2023-05-21T09:49:47.879Z,28.36
2023-05-21T09:50:47.869Z,28.42
2023-05-21T09:51:47.859Z,28.27
2023-05-21T09:52:47.848Z,28.20
2023-05-21T09:53:47.833Z,28.13
2023-05-21T09:54:47.824Z,27.93
2023-05-21T09:55:47.828Z,27.90
2023-05-21T09:56:47.803Z,27.95
2023-05-21T09:57:50.442Z,27.72
2023-05-21T09:58:47.768Z,27.72
2023-05-21T09:59:47.759Z,27.71
2023-05-21T10:00:47.767Z,27.74
2023-05-21T10:01:47.782Z,27.65
2023-05-21T10:02:48.117Z,27.42
2023-05-21T10:03:50.018Z,27.35
2023-05-21T10:04:47.790Z,27.09
2023-05-21T10:05:47.691Z,26.84
2023-05-21T10:06:47.686Z,26.76
2023-05-21T10:07:47.673Z,26.73
2023-05-21T10:08:47.661Z,26.54
2023-05-21T10:09:47.656Z,26.51
2023-05-21T10:10:47.624Z,26.53
2023-05-21T10:11:47.707Z,26.53
2023-05-21T10:12:47.600Z,26.39
2023-05-21T10:13:47.593Z,26.39
2023-05-21T10:14:47.577Z,26.49
2023-05-21T10:15:50.147Z,26.56
2023-05-21T10:16:47.698Z,26.75
2023-05-21T10:17:47.613Z,26.44
2023-05-21T10:18:47.543Z,25.98
2023-05-21T10:19:47.515Z,25.91
2023-05-21T10:20:47.500Z,25.89
2023-05-21T10:21:47.638Z,25.91
2023-05-21T10:22:47.471Z,25.96
2023-05-21T10:23:47.465Z,25.94
2023-05-21T10:24:47.606Z,26.03
2023-05-21T10:25:47.443Z,26.06
2023-05-21T10:26:47.426Z,26.12
2023-05-21T10:27:47.426Z,26.19
2023-05-21T10:28:47.406Z,26.32
2023-05-21T10:29:47.401Z,26.38
2023-05-21T10:30:47.381Z,26.35
2023-05-21T10:31:47.483Z,26.46
2023-05-21T10:32:47.434Z,26.32
2023-05-21T10:33:47.374Z,26.13
2023-05-21T10:34:47.330Z,25.82
2023-05-21T10:35:47.316Z,25.67
2023-05-21T10:36:47.302Z,25.46
2023-05-21T10:37:47.306Z,25.41
2023-05-21T10:38:47.282Z,25.42
2023-05-21T10:39:47.266Z,25.46
2023-05-21T10:40:47.254Z,25.48
2023-05-21T10:41:47.243Z,25.48
2023-05-21T10:42:47.227Z,25.59
2023-05-21T10:43:47.241Z,25.54
2023-05-21T10:44:47.757Z,25.61
2023-05-21T10:45:47.233Z,25.75
2023-05-21T10:46:47.188Z,25.71
2023-05-21T10:47:47.202Z,25.54
2023-05-21T10:48:47.157Z,25.42
2023-05-21T10:49:47.266Z,25.36
2023-05-21T10:50:47.136Z,25.41
2023-05-21T10:51:47.113Z,25.34
2023-05-21T10:52:47.109Z,25.07
2023-05-21T10:53:47.097Z,24.92
2023-05-21T10:54:47.079Z,24.87
2023-05-21T10:55:47.070Z,24.74
2023-05-21T10:56:47.051Z,24.84
2023-05-21T10:57:47.041Z,24.80
2023-05-21T10:58:47.037Z,24.82
2023-05-21T10:59:47.015Z,24.84
2023-05-21T11:00:47.009Z,24.79
2023-05-21T11:01:47.111Z,24.70
2023-05-21T11:02:47.076Z,24.71
2023-05-21T11:03:47.023Z,24.68
2023-05-21T11:04:46.956Z,24.70
2023-05-21T11:05:46.961Z,24.67
2023-05-21T11:06:46.948Z,24.61
2023-05-21T11:07:46.908Z,24.49
2023-05-21T11:08:46.899Z,24.55
2023-05-21T11:09:46.880Z,24.60
2023-05-21T11:10:46.874Z,24.49
2023-05-21T11:11:46.877Z,24.46
2023-05-21T11:12:46.917Z,24.46
2023-05-21T11:13:46.844Z,24.39
2023-05-21T11:14:46.824Z,24.26
2023-05-21T11:15:46.814Z,24.24
2023-05-21T11:16:46.866Z,24.27
2023-05-21T11:17:46.801Z,24.44
2023-05-21T11:18:46.796Z,24.34
2023-05-21T11:19:46.827Z,24.29
2023-05-21T11:20:46.751Z,24.21
2023-05-21T11:21:46.760Z,24.15
2023-05-21T11:22:46.748Z,24.21
2023-05-21T11:23:46.716Z,24.23
2023-05-21T11:24:47.423Z,24.26
2023-05-21T11:25:46.693Z,24.37
2023-05-21T11:26:46.680Z,24.39
2023-05-21T11:27:46.657Z,24.37
2023-05-21T11:28:46.643Z,24.48
2023-05-21T11:29:46.632Z,24.64
2023-05-21T11:30:46.623Z,24.75
2023-05-21T11:31:46.785Z,24.93
2023-05-21T11:32:46.667Z,25.14
2023-05-21T11:33:46.581Z,25.35
2023-05-21T11:34:46.576Z,25.54
2023-05-21T11:35:46.555Z,25.64
2023-05-21T11:36:46.543Z,25.79
2023-05-21T11:37:46.572Z,26.01
2023-05-21T11:38:46.515Z,26.17
2023-05-21T11:39:46.512Z,26.29
2023-05-21T11:40:46.493Z,26.08
2023-05-21T11:41:46.481Z,26.01
2023-05-21T11:42:46.470Z,26.06
2023-05-21T11:43:46.458Z,25.85
2023-05-21T11:44:46.448Z,25.82
2023-05-21T11:45:46.429Z,25.71
2023-05-21T11:46:46.490Z,25.69
2023-05-21T11:47:46.405Z,25.72
2023-05-21T11:48:46.390Z,25.83
2023-05-21T11:49:46.451Z,25.86
2023-05-21T11:50:46.371Z,26.06
2023-05-21T11:51:46.509Z,26.27
2023-05-21T11:52:46.357Z,26.41
2023-05-21T11:53:46.468Z,26.49
2023-05-21T11:54:46.608Z,26.57
2023-05-21T11:55:46.302Z,26.60
2023-05-21T11:56:46.306Z,26.79
2023-05-21T11:57:46.278Z,26.88
2023-05-21T11:58:46.267Z,26.86
2023-05-21T11:59:46.253Z,26.98
2023-05-21T12:00:46.237Z,26.98
2023-05-21T12:01:46.225Z,26.88
2023-05-21T12:02:46.281Z,26.87
2023-05-21T12:03:46.412Z,26.73
2023-05-21T12:04:46.205Z,26.51
2023-05-21T12:05:46.247Z,26.27
2023-05-21T12:06:46.179Z,26.19
2023-05-21T12:07:46.157Z,26.24
2023-05-21T12:08:46.146Z,26.16
2023-05-21T12:09:46.159Z,26.35
2023-05-21T12:10:46.298Z,26.44
2023-05-21T12:11:46.110Z,26.46
2023-05-21T12:12:54.569Z,26.49
2023-05-21T12:13:47.120Z,26.41
2023-05-21T12:14:46.056Z,26.51
2023-05-21T12:15:46.048Z,26.39
2023-05-21T12:16:46.057Z,26.47
2023-05-21T12:17:46.055Z,26.46
2023-05-21T12:18:46.149Z,26.50
2023-05-21T12:19:46.024Z,26.57
2023-05-21T12:20:45.990Z,26.65
2023-05-21T12:21:45.973Z,26.73
2023-05-21T12:22:45.972Z,26.76
2023-05-21T12:23:45.948Z,26.83
2023-05-21T12:24:45.930Z,26.78
2023-05-21T12:25:45.942Z,26.83
2023-05-21T12:26:45.930Z,26.78
2023-05-21T12:27:45.893Z,26.64
2023-05-21T12:28:45.884Z,26.32
2023-05-21T12:29:45.865Z,26.16
2023-05-21T12:30:45.857Z,26.21
2023-05-21T12:31:45.884Z,26.29
2023-05-21T12:32:45.861Z,26.32
2023-05-21T12:33:45.833Z,26.36
2023-05-21T12:34:45.810Z,26.42
2023-05-21T12:35:45.812Z,26.65
2023-05-21T12:36:45.781Z,26.78
2023-05-21T12:37:45.766Z,26.83
2023-05-21T12:38:45.760Z,26.84
2023-05-21T12:39:45.755Z,26.88
2023-05-21T12:40:45.947Z,26.87
2023-05-21T12:41:45.752Z,26.94
2023-05-21T12:42:46.142Z,27.01
2023-05-21T12:43:45.697Z,27.01
2023-05-21T12:44:45.683Z,27.02
2023-05-21T12:45:45.698Z,27.03
2023-05-21T12:46:45.662Z,26.98
2023-05-21T12:47:45.671Z,27.05
2023-05-21T12:48:45.635Z,27.08
2023-05-21T12:49:45.622Z,27.09
2023-05-21T12:50:45.611Z,27.11
2023-05-21T12:51:45.590Z,26.96
2023-05-21T12:52:45.593Z,26.98